sensor_id;sensor_type;location;lat;lon;timestamp;temperature;humidity
54034;DHT22;39952;40.122;18.294;2022-07-10T00:01:59;26.90;51.50
54034;DHT22;39952;40.122;18.294;2022-07-10T00:05:09;26.90;51.50
54034;DHT22;39952;40.122;18.294;2022-07-10T00:08:20;26.90;51.00
54034;DHT22;39952;40.122;18.294;2022-07-10T00:11:27;26.90;51.20
54034;DHT22;39952;40.122;18.294;2022-07-10T00:14:33;27.00;51.10
54034;DHT22;39952;40.122;18.294;2022-07-10T00:17:40;26.90;51.50
54034;DHT22;39952;40.122;18.294;2022-07-10T00:20:48;26.90;50.70
54034;DHT22;39952;40.122;18.294;2022-07-10T00:23:55;26.90;51.90
54034;DHT22;39952;40.122;18.294;2022-07-10T00:27:02;27.00;51.60
54034;DHT22;39952;40.122;18.294;2022-07-10T00:30:09;27.10;51.00
54034;DHT22;39952;40.122;18.294;2022-07-10T00:33:16;27.20;51.00
54034;DHT22;39952;40.122;18.294;2022-07-10T00:36:24;27.10;51.40
54034;DHT22;39952;40.122;18.294;2022-07-10T00:39:31;27.10;50.40
54034;DHT22;39952;40.122;18.294;2022-07-10T00:42:38;27.10;51.50
54034;DHT22;39952;40.122;18.294;2022-07-10T00:45:44;27.20;50.40
54034;DHT22;39952;40.122;18.294;2022-07-10T00:48:52;27.20;50.60
54034;DHT22;39952;40.122;18.294;2022-07-10T00:52:03;27.10;50.30
54034;DHT22;39952;40.122;18.294;2022-07-10T00:55:10;26.90;50.60
54034;DHT22;39952;40.122;18.294;2022-07-10T00:58:17;27.00;50.30
54034;DHT22;39952;40.122;18.294;2022-07-10T01:01:24;26.90;50.80
54034;DHT22;39952;40.122;18.294;2022-07-10T01:04:31;26.80;50.20
54034;DHT22;39952;40.122;18.294;2022-07-10T01:07:39;26.80;50.80
54034;DHT22;39952;40.122;18.294;2022-07-10T01:10:47;26.80;50.60
54034;DHT22;39952;40.122;18.294;2022-07-10T01:13:54;26.80;50.90
54034;DHT22;39952;40.122;18.294;2022-07-10T01:17:02;26.80;50.40
54034;DHT22;39952;40.122;18.294;2022-07-10T01:20:10;26.70;51.20
54034;DHT22;39952;40.122;18.294;2022-07-10T01:23:18;26.70;50.20
54034;DHT22;39952;40.122;18.294;2022-07-10T01:26:25;26.50;51.20
54034;DHT22;39952;40.122;18.294;2022-07-10T01:29:32;26.50;51.00
54034;DHT22;39952;40.122;18.294;2022-07-10T01:32:41;26.60;51.60
54034;DHT22;39952;40.122;18.294;2022-07-10T01:35:48;26.50;50.70
54034;DHT22;39952;40.122;18.294;2022-07-10T01:38:56;26.50;51.40
54034;DHT22;39952;40.122;18.294;2022-07-10T01:42:04;26.10;51.70
54034;DHT22;39952;40.122;18.294;2022-07-10T01:45:11;26.20;52.40
54034;DHT22;39952;40.122;18.294;2022-07-10T01:48:17;26.30;51.80
54034;DHT22;39952;40.122;18.294;2022-07-10T01:51:24;26.40;51.60
54034;DHT22;39952;40.122;18.294;2022-07-10T01:54:32;26.60;50.90
54034;DHT22;39952;40.122;18.294;2022-07-10T01:57:39;26.50;51.60
54034;DHT22;39952;40.122;18.294;2022-07-10T02:00:46;26.30;51.20
54034;DHT22;39952;40.122;18.294;2022-07-10T02:03:52;26.40;52.00
54034;DHT22;39952;40.122;18.294;2022-07-10T02:07:18;26.40;51.00
54034;DHT22;39952;40.122;18.294;2022-07-10T02:10:28;26.40;51.30
54034;DHT22;39952;40.122;18.294;2022-07-10T02:13:34;26.30;51.80
54034;DHT22;39952;40.122;18.294;2022-07-10T02:16:41;26.20;52.00
54034;DHT22;39952;40.122;18.294;2022-07-10T02:19:50;26.30;51.80
54034;DHT22;39952;40.122;18.294;2022-07-10T02:22:56;26.40;51.20
54034;DHT22;39952;40.122;18.294;2022-07-10T02:26:04;26.40;51.30
54034;DHT22;39952;40.122;18.294;2022-07-10T02:29:11;26.40;50.80
54034;DHT22;39952;40.122;18.294;2022-07-10T02:32:18;26.40;51.10
54034;DHT22;39952;40.122;18.294;2022-07-10T02:35:25;26.40;51.20
54034;DHT22;39952;40.122;18.294;2022-07-10T02:38:31;26.40;50.70
54034;DHT22;39952;40.122;18.294;2022-07-10T02:41:40;26.30;51.20
54034;DHT22;39952;40.122;18.294;2022-07-10T02:44:47;26.40;51.00
54034;DHT22;39952;40.122;18.294;2022-07-10T02:47:53;26.40;50.30
54034;DHT22;39952;40.122;18.294;2022-07-10T02:51:00;26.30;50.70
54034;DHT22;39952;40.122;18.294;2022-07-10T02:54:07;26.40;49.90
54034;DHT22;39952;40.122;18.294;2022-07-10T02:57:15;26.30;50.40
54034;DHT22;39952;40.122;18.294;2022-07-10T03:00:22;26.30;49.60
54034;DHT22;39952;40.122;18.294;2022-07-10T03:03:29;26.30;50.70
54034;DHT22;39952;40.122;18.294;2022-07-10T03:06:36;26.30;49.90
54034;DHT22;39952;40.122;18.294;2022-07-10T03:09:43;26.20;51.00
54034;DHT22;39952;40.122;18.294;2022-07-10T03:12:51;26.40;50.10
54034;DHT22;39952;40.122;18.294;2022-07-10T03:15:58;26.30;50.40
54034;DHT22;39952;40.122;18.294;2022-07-10T03:19:05;26.40;49.50
54034;DHT22;39952;40.122;18.294;2022-07-10T03:22:11;26.30;50.10
54034;DHT22;39952;40.122;18.294;2022-07-10T03:25:18;26.30;49.80
54034;DHT22;39952;40.122;18.294;2022-07-10T03:28:26;26.40;50.40
54034;DHT22;39952;40.122;18.294;2022-07-10T03:31:33;26.40;50.00
54034;DHT22;39952;40.122;18.294;2022-07-10T03:34:39;26.30;50.90
54034;DHT22;39952;40.122;18.294;2022-07-10T03:37:46;26.20;51.40
54034;DHT22;39952;40.122;18.294;2022-07-10T03:40:53;26.10;52.30
54034;DHT22;39952;40.122;18.294;2022-07-10T03:44:01;26.10;52.40
54034;DHT22;39952;40.122;18.294;2022-07-10T03:47:07;26.10;52.80
54034;DHT22;39952;40.122;18.294;2022-07-10T03:50:14;26.00;52.50
54034;DHT22;39952;40.122;18.294;2022-07-10T03:53:20;25.50;53.90
54034;DHT22;39952;40.122;18.294;2022-07-10T03:56:27;25.40;54.40
54034;DHT22;39952;40.122;18.294;2022-07-10T03:59:58;25.50;54.30
54034;DHT22;39952;40.122;18.294;2022-07-10T04:03:15;25.70;53.40
54034;DHT22;39952;40.122;18.294;2022-07-10T04:06:22;25.80;52.90
54034;DHT22;39952;40.122;18.294;2022-07-10T04:09:28;25.80;53.10
54034;DHT22;39952;40.122;18.294;2022-07-10T04:12:35;25.70;53.10
54034;DHT22;39952;40.122;18.294;2022-07-10T04:15:43;25.80;53.50
54034;DHT22;39952;40.122;18.294;2022-07-10T04:18:49;25.80;53.60
54034;DHT22;39952;40.122;18.294;2022-07-10T04:21:56;25.70;53.80
54034;DHT22;39952;40.122;18.294;2022-07-10T04:25:04;25.60;54.30
54034;DHT22;39952;40.122;18.294;2022-07-10T04:28:11;25.70;54.60
54034;DHT22;39952;40.122;18.294;2022-07-10T04:31:19;25.80;54.00
54034;DHT22;39952;40.122;18.294;2022-07-10T04:34:26;26.00;54.10
54034;DHT22;39952;40.122;18.294;2022-07-10T04:37:33;25.90;54.00
54034;DHT22;39952;40.122;18.294;2022-07-10T04:40:40;26.20;54.10
54034;DHT22;39952;40.122;18.294;2022-07-10T04:43:47;26.20;53.30
54034;DHT22;39952;40.122;18.294;2022-07-10T04:46:56;26.20;53.70
54034;DHT22;39952;40.122;18.294;2022-07-10T04:50:03;26.30;53.50
54034;DHT22;39952;40.122;18.294;2022-07-10T04:53:09;26.40;53.60
54034;DHT22;39952;40.122;18.294;2022-07-10T04:56:16;26.60;52.90
54034;DHT22;39952;40.122;18.294;2022-07-10T04:59:23;26.60;52.90
54034;DHT22;39952;40.122;18.294;2022-07-10T05:02:31;26.60;52.60
54034;DHT22;39952;40.122;18.294;2022-07-10T05:05:38;26.30;53.60
54034;DHT22;39952;40.122;18.294;2022-07-10T05:08:45;26.50;52.40
54034;DHT22;39952;40.122;18.294;2022-07-10T05:11:51;26.70;52.30
54034;DHT22;39952;40.122;18.294;2022-07-10T05:14:58;26.80;52.00
54034;DHT22;39952;40.122;18.294;2022-07-10T05:18:07;26.90;52.10
54034;DHT22;39952;40.122;18.294;2022-07-10T05:21:15;26.80;52.20
54034;DHT22;39952;40.122;18.294;2022-07-10T05:24:23;26.80;52.70
54034;DHT22;39952;40.122;18.294;2022-07-10T05:27:30;26.90;51.30
54034;DHT22;39952;40.122;18.294;2022-07-10T05:30:36;27.30;50.90
54034;DHT22;39952;40.122;18.294;2022-07-10T05:33:44;27.50;49.90
54034;DHT22;39952;40.122;18.294;2022-07-10T05:36:51;27.60;49.20
54034;DHT22;39952;40.122;18.294;2022-07-10T05:39:58;27.80;48.90
54034;DHT22;39952;40.122;18.294;2022-07-10T05:43:05;27.70;49.00
54034;DHT22;39952;40.122;18.294;2022-07-10T05:46:12;27.80;48.90
54034;DHT22;39952;40.122;18.294;2022-07-10T05:49:20;27.80;49.00
54034;DHT22;39952;40.122;18.294;2022-07-10T05:52:27;27.80;48.40
54034;DHT22;39952;40.122;18.294;2022-07-10T05:55:34;27.80;48.40
54034;DHT22;39952;40.122;18.294;2022-07-10T05:58:40;27.90;47.80
54034;DHT22;39952;40.122;18.294;2022-07-10T06:01:47;28.00;47.30
54034;DHT22;39952;40.122;18.294;2022-07-10T06:04:57;28.00;47.40
54034;DHT22;39952;40.122;18.294;2022-07-10T06:08:04;27.80;46.00
54034;DHT22;39952;40.122;18.294;2022-07-10T06:11:11;27.50;45.30
54034;DHT22;39952;40.122;18.294;2022-07-10T06:14:18;27.50;45.60
54034;DHT22;39952;40.122;18.294;2022-07-10T06:17:25;27.40;45.50
54034;DHT22;39952;40.122;18.294;2022-07-10T06:20:33;27.30;45.90
54034;DHT22;39952;40.122;18.294;2022-07-10T06:23:40;27.40;46.10
54034;DHT22;39952;40.122;18.294;2022-07-10T06:26:47;27.60;46.10
54034;DHT22;39952;40.122;18.294;2022-07-10T06:29:53;27.50;46.60
54034;DHT22;39952;40.122;18.294;2022-07-10T06:33:00;27.50;46.40
54034;DHT22;39952;40.122;18.294;2022-07-10T06:36:08;27.80;46.50
54034;DHT22;39952;40.122;18.294;2022-07-10T06:39:15;28.00;44.70
54034;DHT22;39952;40.122;18.294;2022-07-10T06:42:21;28.00;45.00
54034;DHT22;39952;40.122;18.294;2022-07-10T06:45:29;28.00;45.40
54034;DHT22;39952;40.122;18.294;2022-07-10T06:48:36;27.80;44.90
54034;DHT22;39952;40.122;18.294;2022-07-10T06:51:46;27.90;43.70
54034;DHT22;39952;40.122;18.294;2022-07-10T06:54:53;27.80;43.10
54034;DHT22;39952;40.122;18.294;2022-07-10T06:57:59;27.50;43.10
54034;DHT22;39952;40.122;18.294;2022-07-10T07:01:06;27.60;43.80
54034;DHT22;39952;40.122;18.294;2022-07-10T07:04:13;27.90;43.30
54034;DHT22;39952;40.122;18.294;2022-07-10T07:07:21;28.00;42.30
54034;DHT22;39952;40.122;18.294;2022-07-10T07:10:29;28.00;41.80
54034;DHT22;39952;40.122;18.294;2022-07-10T07:13:36;27.80;42.70
54034;DHT22;39952;40.122;18.294;2022-07-10T07:16:43;28.10;42.00
54034;DHT22;39952;40.122;18.294;2022-07-10T07:19:51;28.00;41.10
54034;DHT22;39952;40.122;18.294;2022-07-10T07:23:17;28.00;41.10
54034;DHT22;39952;40.122;18.294;2022-07-10T07:26:23;27.80;41.80
54034;DHT22;39952;40.122;18.294;2022-07-10T07:29:30;27.60;42.30
54034;DHT22;39952;40.122;18.294;2022-07-10T07:32:38;28.00;42.10
54034;DHT22;39952;40.122;18.294;2022-07-10T07:35:45;28.30;42.30
54034;DHT22;39952;40.122;18.294;2022-07-10T07:38:53;28.60;41.30
54034;DHT22;39952;40.122;18.294;2022-07-10T07:42:00;28.50;41.80
54034;DHT22;39952;40.122;18.294;2022-07-10T07:45:08;28.30;42.40
54034;DHT22;39952;40.122;18.294;2022-07-10T07:48:16;28.30;40.80
54034;DHT22;39952;40.122;18.294;2022-07-10T07:51:23;28.20;41.00
54034;DHT22;39952;40.122;18.294;2022-07-10T07:54:30;28.10;42.30
54034;DHT22;39952;40.122;18.294;2022-07-10T07:57:37;28.30;42.70
54034;DHT22;39952;40.122;18.294;2022-07-10T08:00:44;28.60;40.90
54034;DHT22;39952;40.122;18.294;2022-07-10T08:03:51;28.80;41.40
54034;DHT22;39952;40.122;18.294;2022-07-10T08:07:11;28.50;42.10
54034;DHT22;39952;40.122;18.294;2022-07-10T08:10:22;28.80;40.90
54034;DHT22;39952;40.122;18.294;2022-07-10T08:13:29;28.80;41.00
54034;DHT22;39952;40.122;18.294;2022-07-10T08:16:37;28.50;41.60
54034;DHT22;39952;40.122;18.294;2022-07-10T08:19:45;28.40;38.90
54034;DHT22;39952;40.122;18.294;2022-07-10T08:22:51;28.40;39.20
54034;DHT22;39952;40.122;18.294;2022-07-10T08:26:04;28.60;38.70
54034;DHT22;39952;40.122;18.294;2022-07-10T08:29:11;28.80;38.30
54034;DHT22;39952;40.122;18.294;2022-07-10T08:32:18;28.70;38.80
54034;DHT22;39952;40.122;18.294;2022-07-10T08:35:25;28.50;39.70
54034;DHT22;39952;40.122;18.294;2022-07-10T08:38:31;28.60;41.10
54034;DHT22;39952;40.122;18.294;2022-07-10T08:41:42;28.80;41.40
54034;DHT22;39952;40.122;18.294;2022-07-10T08:44:51;29.00;41.30
54034;DHT22;39952;40.122;18.294;2022-07-10T08:48:01;29.70;38.80
54034;DHT22;39952;40.122;18.294;2022-07-10T08:51:10;30.00;38.30
54034;DHT22;39952;40.122;18.294;2022-07-10T08:54:23;30.10;37.90
54034;DHT22;39952;40.122;18.294;2022-07-10T08:57:33;29.90;37.40
54034;DHT22;39952;40.122;18.294;2022-07-10T09:00:41;30.10;36.70
54034;DHT22;39952;40.122;18.294;2022-07-10T09:03:47;29.90;37.80
54034;DHT22;39952;40.122;18.294;2022-07-10T09:06:55;30.20;35.70
54034;DHT22;39952;40.122;18.294;2022-07-10T09:10:06;32.00;32.80
54034;DHT22;39952;40.122;18.294;2022-07-10T09:13:14;32.90;31.80
54034;DHT22;39952;40.122;18.294;2022-07-10T09:16:23;33.70;30.30
54034;DHT22;39952;40.122;18.294;2022-07-10T09:19:30;35.70;27.10
54034;DHT22;39952;40.122;18.294;2022-07-10T09:22:36;36.10;25.70
54034;DHT22;39952;40.122;18.294;2022-07-10T09:25:43;35.90;25.70
54034;DHT22;39952;40.122;18.294;2022-07-10T09:29:05;35.80;25.00
54034;DHT22;39952;40.122;18.294;2022-07-10T09:32:14;36.50;25.20
54034;DHT22;39952;40.122;18.294;2022-07-10T09:35:21;37.10;24.60
54034;DHT22;39952;40.122;18.294;2022-07-10T09:38:50;37.80;23.20
54034;DHT22;39952;40.122;18.294;2022-07-10T09:41:57;37.30;24.60
54034;DHT22;39952;40.122;18.294;2022-07-10T09:45:16;37.00;25.40
54034;DHT22;39952;40.122;18.294;2022-07-10T09:48:23;38.60;22.80
54034;DHT22;39952;40.122;18.294;2022-07-10T09:51:33;39.00;22.90
54034;DHT22;39952;40.122;18.294;2022-07-10T09:54:40;38.70;22.70
54034;DHT22;39952;40.122;18.294;2022-07-10T09:57:53;37.30;23.90
54034;DHT22;39952;40.122;18.294;2022-07-10T10:01:03;36.60;25.50
54034;DHT22;39952;40.122;18.294;2022-07-10T10:04:11;37.70;23.90
54034;DHT22;39952;40.122;18.294;2022-07-10T10:07:18;38.80;23.30
54034;DHT22;39952;40.122;18.294;2022-07-10T10:10:25;39.10;23.20
54034;DHT22;39952;40.122;18.294;2022-07-10T10:13:34;40.40;21.60
54034;DHT22;39952;40.122;18.294;2022-07-10T10:16:45;40.20;22.20
54034;DHT22;39952;40.122;18.294;2022-07-10T10:19:54;40.70;21.60
54034;DHT22;39952;40.122;18.294;2022-07-10T10:23:25;40.70;21.20
54034;DHT22;39952;40.122;18.294;2022-07-10T10:26:33;39.60;21.50
54034;DHT22;39952;40.122;18.294;2022-07-10T10:29:40;39.10;22.50
54034;DHT22;39952;40.122;18.294;2022-07-10T10:32:48;38.60;23.50
54034;DHT22;39952;40.122;18.294;2022-07-10T10:35:54;38.40;23.40
54034;DHT22;39952;40.122;18.294;2022-07-10T10:39:03;38.20;23.30
54034;DHT22;39952;40.122;18.294;2022-07-10T10:42:32;38.10;23.40
54034;DHT22;39952;40.122;18.294;2022-07-10T10:45:40;38.40;23.60
54034;DHT22;39952;40.122;18.294;2022-07-10T10:49:04;37.60;25.30
54034;DHT22;39952;40.122;18.294;2022-07-10T10:52:11;37.80;25.30
54034;DHT22;39952;40.122;18.294;2022-07-10T10:55:20;36.20;27.60
54034;DHT22;39952;40.122;18.294;2022-07-10T10:58:36;35.50;28.80
54034;DHT22;39952;40.122;18.294;2022-07-10T11:01:44;34.80;29.40
54034;DHT22;39952;40.122;18.294;2022-07-10T11:08:39;33.10;33.90
54034;DHT22;39952;40.122;18.294;2022-07-10T11:11:58;33.90;32.00
54034;DHT22;39952;40.122;18.294;2022-07-10T11:15:06;34.20;31.00
54034;DHT22;39952;40.122;18.294;2022-07-10T11:18:21;33.60;32.50
54034;DHT22;39952;40.122;18.294;2022-07-10T11:21:45;32.80;34.20
54034;DHT22;39952;40.122;18.294;2022-07-10T11:25:01;33.10;33.90
54034;DHT22;39952;40.122;18.294;2022-07-10T11:28:10;33.10;33.40
54034;DHT22;39952;40.122;18.294;2022-07-10T11:31:18;33.10;33.60
54034;DHT22;39952;40.122;18.294;2022-07-10T11:34:34;33.50;32.90
54034;DHT22;39952;40.122;18.294;2022-07-10T11:37:50;33.80;32.10
54034;DHT22;39952;40.122;18.294;2022-07-10T11:40:57;33.80;32.70
54034;DHT22;39952;40.122;18.294;2022-07-10T11:44:04;33.20;31.70
54034;DHT22;39952;40.122;18.294;2022-07-10T11:47:11;32.80;32.60
54034;DHT22;39952;40.122;18.294;2022-07-10T11:50:18;32.60;33.40
54034;DHT22;39952;40.122;18.294;2022-07-10T11:53:27;32.80;33.40
54034;DHT22;39952;40.122;18.294;2022-07-10T11:56:34;32.30;33.00
54034;DHT22;39952;40.122;18.294;2022-07-10T11:59:41;32.20;34.10
54034;DHT22;39952;40.122;18.294;2022-07-10T12:02:48;32.20;33.60
54034;DHT22;39952;40.122;18.294;2022-07-10T12:05:54;33.00;33.40
54034;DHT22;39952;40.122;18.294;2022-07-10T12:09:03;33.20;32.10
54034;DHT22;39952;40.122;18.294;2022-07-10T12:12:10;33.10;31.90
54034;DHT22;39952;40.122;18.294;2022-07-10T12:15:31;33.10;32.60
54034;DHT22;39952;40.122;18.294;2022-07-10T12:18:39;33.90;31.20
54034;DHT22;39952;40.122;18.294;2022-07-10T12:21:47;33.50;31.70
54034;DHT22;39952;40.122;18.294;2022-07-10T12:24:57;33.30;32.70
54034;DHT22;39952;40.122;18.294;2022-07-10T12:28:05;33.30;30.70
54034;DHT22;39952;40.122;18.294;2022-07-10T12:31:20;33.50;31.00
54034;DHT22;39952;40.122;18.294;2022-07-10T12:34:34;33.90;31.30
54034;DHT22;39952;40.122;18.294;2022-07-10T12:37:47;33.50;31.20
54034;DHT22;39952;40.122;18.294;2022-07-10T12:41:07;33.40;31.10
54034;DHT22;39952;40.122;18.294;2022-07-10T12:44:30;33.80;29.00
54034;DHT22;39952;40.122;18.294;2022-07-10T12:47:43;33.90;29.50
54034;DHT22;39952;40.122;18.294;2022-07-10T12:50:50;33.30;30.00
54034;DHT22;39952;40.122;18.294;2022-07-10T12:53:57;33.40;30.80
54034;DHT22;39952;40.122;18.294;2022-07-10T12:57:05;33.40;29.40
54034;DHT22;39952;40.122;18.294;2022-07-10T13:00:14;33.80;29.10
54034;DHT22;39952;40.122;18.294;2022-07-10T13:03:21;34.20;28.00
54034;DHT22;39952;40.122;18.294;2022-07-10T13:06:30;35.10;27.40
54034;DHT22;39952;40.122;18.294;2022-07-10T13:09:39;34.60;27.90
54034;DHT22;39952;40.122;18.294;2022-07-10T13:12:48;33.70;29.10
54034;DHT22;39952;40.122;18.294;2022-07-10T13:15:54;33.50;28.50
54034;DHT22;39952;40.122;18.294;2022-07-10T13:19:02;33.90;27.80
54034;DHT22;39952;40.122;18.294;2022-07-10T13:22:09;34.30;27.70
54034;DHT22;39952;40.122;18.294;2022-07-10T13:25:15;34.50;27.00
54034;DHT22;39952;40.122;18.294;2022-07-10T13:28:24;35.00;25.90
54034;DHT22;39952;40.122;18.294;2022-07-10T13:31:30;35.40;25.20
54034;DHT22;39952;40.122;18.294;2022-07-10T13:34:37;35.60;24.60
54034;DHT22;39952;40.122;18.294;2022-07-10T13:37:44;35.70;24.60
54034;DHT22;39952;40.122;18.294;2022-07-10T13:40:52;35.70;24.40
54034;DHT22;39952;40.122;18.294;2022-07-10T13:44:00;34.80;25.80
54034;DHT22;39952;40.122;18.294;2022-07-10T13:47:06;34.60;26.20
54034;DHT22;39952;40.122;18.294;2022-07-10T13:50:13;34.50;26.20
54034;DHT22;39952;40.122;18.294;2022-07-10T13:53:21;34.80;26.20
54034;DHT22;39952;40.122;18.294;2022-07-10T13:56:28;34.80;26.20
54034;DHT22;39952;40.122;18.294;2022-07-10T13:59:36;35.00;25.60
54034;DHT22;39952;40.122;18.294;2022-07-10T14:02:43;35.10;25.80
54034;DHT22;39952;40.122;18.294;2022-07-10T14:05:49;35.10;25.80
54034;DHT22;39952;40.122;18.294;2022-07-10T14:08:56;34.60;25.90
54034;DHT22;39952;40.122;18.294;2022-07-10T14:12:03;34.60;25.40
54034;DHT22;39952;40.122;18.294;2022-07-10T14:15:12;34.50;25.50
54034;DHT22;39952;40.122;18.294;2022-07-10T14:18:18;34.40;25.60
54034;DHT22;39952;40.122;18.294;2022-07-10T14:21:40;34.70;25.00
54034;DHT22;39952;40.122;18.294;2022-07-10T14:24:46;35.10;24.90
54034;DHT22;39952;40.122;18.294;2022-07-10T14:27:53;34.00;26.50
54034;DHT22;39952;40.122;18.294;2022-07-10T14:31:01;33.70;26.90
54034;DHT22;39952;40.122;18.294;2022-07-10T14:34:08;33.70;27.10
54034;DHT22;39952;40.122;18.294;2022-07-10T14:37:16;33.90;26.90
54034;DHT22;39952;40.122;18.294;2022-07-10T14:40:22;33.80;27.30
54034;DHT22;39952;40.122;18.294;2022-07-10T14:43:29;33.80;27.00
54034;DHT22;39952;40.122;18.294;2022-07-10T14:46:39;33.40;27.30
54034;DHT22;39952;40.122;18.294;2022-07-10T14:49:47;33.60;27.50
54034;DHT22;39952;40.122;18.294;2022-07-10T14:52:57;33.30;27.10
54034;DHT22;39952;40.122;18.294;2022-07-10T14:56:05;33.40;27.40
54034;DHT22;39952;40.122;18.294;2022-07-10T14:59:12;33.50;27.10
54034;DHT22;39952;40.122;18.294;2022-07-10T15:02:21;33.10;27.30
54034;DHT22;39952;40.122;18.294;2022-07-10T15:05:28;32.60;27.80
54034;DHT22;39952;40.122;18.294;2022-07-10T15:08:35;32.40;28.70
54034;DHT22;39952;40.122;18.294;2022-07-10T15:11:42;32.20;29.10
54034;DHT22;39952;40.122;18.294;2022-07-10T15:14:48;32.30;29.20
54034;DHT22;39952;40.122;18.294;2022-07-10T15:17:57;32.40;28.90
54034;DHT22;39952;40.122;18.294;2022-07-10T15:21:04;32.50;27.90
54034;DHT22;39952;40.122;18.294;2022-07-10T15:24:10;32.40;28.30
54034;DHT22;39952;40.122;18.294;2022-07-10T15:27:16;31.70;29.20
54034;DHT22;39952;40.122;18.294;2022-07-10T15:30:23;31.40;30.20
54034;DHT22;39952;40.122;18.294;2022-07-10T15:33:31;31.50;30.90
54034;DHT22;39952;40.122;18.294;2022-07-10T15:36:38;31.60;30.30
54034;DHT22;39952;40.122;18.294;2022-07-10T15:39:45;31.70;30.60
54034;DHT22;39952;40.122;18.294;2022-07-10T15:42:51;31.30;31.20
54034;DHT22;39952;40.122;18.294;2022-07-10T15:45:59;30.80;32.10
54034;DHT22;39952;40.122;18.294;2022-07-10T15:49:08;30.90;31.90
54034;DHT22;39952;40.122;18.294;2022-07-10T15:52:27;30.90;30.40
54034;DHT22;39952;40.122;18.294;2022-07-10T15:55:40;30.60;30.70
54034;DHT22;39952;40.122;18.294;2022-07-10T15:58:54;30.30;31.00
54034;DHT22;39952;40.122;18.294;2022-07-10T16:02:13;30.30;31.80
54034;DHT22;39952;40.122;18.294;2022-07-10T16:05:35;30.00;32.90
54034;DHT22;39952;40.122;18.294;2022-07-10T16:08:42;29.80;34.10
54034;DHT22;39952;40.122;18.294;2022-07-10T16:11:49;29.80;33.80
54034;DHT22;39952;40.122;18.294;2022-07-10T16:14:57;30.00;34.50
54034;DHT22;39952;40.122;18.294;2022-07-10T16:18:03;29.70;35.50
54034;DHT22;39952;40.122;18.294;2022-07-10T16:21:11;30.00;33.80
54034;DHT22;39952;40.122;18.294;2022-07-10T16:24:20;30.20;34.00
54034;DHT22;39952;40.122;18.294;2022-07-10T16:27:26;30.00;35.10
54034;DHT22;39952;40.122;18.294;2022-07-10T16:30:33;30.20;35.10
54034;DHT22;39952;40.122;18.294;2022-07-10T16:33:40;30.10;35.80
54034;DHT22;39952;40.122;18.294;2022-07-10T16:36:49;29.90;35.50
54034;DHT22;39952;40.122;18.294;2022-07-10T16:39:55;29.80;37.00
54034;DHT22;39952;40.122;18.294;2022-07-10T16:43:02;29.80;37.30
54034;DHT22;39952;40.122;18.294;2022-07-10T16:46:09;29.50;36.70
54034;DHT22;39952;40.122;18.294;2022-07-10T16:49:15;29.30;37.40
54034;DHT22;39952;40.122;18.294;2022-07-10T16:52:24;29.30;38.30
54034;DHT22;39952;40.122;18.294;2022-07-10T16:55:31;29.30;37.70
54034;DHT22;39952;40.122;18.294;2022-07-10T16:58:37;28.60;39.40
54034;DHT22;39952;40.122;18.294;2022-07-10T17:01:44;29.00;38.90
54034;DHT22;39952;40.122;18.294;2022-07-10T17:04:50;29.10;37.90
54034;DHT22;39952;40.122;18.294;2022-07-10T17:07:59;28.80;38.10
54034;DHT22;39952;40.122;18.294;2022-07-10T17:11:05;28.30;39.70
54034;DHT22;39952;40.122;18.294;2022-07-10T17:14:12;28.60;38.70
54034;DHT22;39952;40.122;18.294;2022-07-10T17:17:20;28.80;38.90
54034;DHT22;39952;40.122;18.294;2022-07-10T17:20:26;28.60;39.50
54034;DHT22;39952;40.122;18.294;2022-07-10T17:23:35;28.90;39.10
54034;DHT22;39952;40.122;18.294;2022-07-10T17:26:42;28.80;39.50
54034;DHT22;39952;40.122;18.294;2022-07-10T17:29:48;29.10;39.20
54034;DHT22;39952;40.122;18.294;2022-07-10T17:32:55;29.10;39.60
54034;DHT22;39952;40.122;18.294;2022-07-10T17:36:06;29.10;39.90
54034;DHT22;39952;40.122;18.294;2022-07-10T17:39:14;28.80;40.40
54034;DHT22;39952;40.122;18.294;2022-07-10T17:42:21;28.80;40.40
54034;DHT22;39952;40.122;18.294;2022-07-10T17:45:28;28.90;39.90
54034;DHT22;39952;40.122;18.294;2022-07-10T17:48:34;28.90;40.40
54034;DHT22;39952;40.122;18.294;2022-07-10T17:51:41;28.90;40.60
54034;DHT22;39952;40.122;18.294;2022-07-10T17:54:50;28.80;40.30
54034;DHT22;39952;40.122;18.294;2022-07-10T17:57:56;28.80;40.70
54034;DHT22;39952;40.122;18.294;2022-07-10T18:01:03;28.70;41.10
54034;DHT22;39952;40.122;18.294;2022-07-10T18:04:10;28.70;41.20
54034;DHT22;39952;40.122;18.294;2022-07-10T18:07:17;28.80;40.80
54034;DHT22;39952;40.122;18.294;2022-07-10T18:10:25;28.60;41.30
54034;DHT22;39952;40.122;18.294;2022-07-10T18:13:33;28.30;42.00
54034;DHT22;39952;40.122;18.294;2022-07-10T18:16:40;28.30;42.60
54034;DHT22;39952;40.122;18.294;2022-07-10T18:19:47;28.40;42.20
54034;DHT22;39952;40.122;18.294;2022-07-10T18:22:54;28.30;42.30
54034;DHT22;39952;40.122;18.294;2022-07-10T18:26:03;28.30;42.00
54034;DHT22;39952;40.122;18.294;2022-07-10T18:29:10;28.40;42.00
54034;DHT22;39952;40.122;18.294;2022-07-10T18:32:19;28.50;41.70
54034;DHT22;39952;40.122;18.294;2022-07-10T18:35:46;28.50;42.10
54034;DHT22;39952;40.122;18.294;2022-07-10T18:38:52;28.50;42.00
54034;DHT22;39952;40.122;18.294;2022-07-10T18:42:01;28.50;42.10
54034;DHT22;39952;40.122;18.294;2022-07-10T18:45:08;28.40;42.10
54034;DHT22;39952;40.122;18.294;2022-07-10T18:48:15;28.40;42.50
54034;DHT22;39952;40.122;18.294;2022-07-10T18:51:22;28.30;42.50
54034;DHT22;39952;40.122;18.294;2022-07-10T18:54:29;28.30;42.60
54034;DHT22;39952;40.122;18.294;2022-07-10T18:57:37;28.30;42.50
54034;DHT22;39952;40.122;18.294;2022-07-10T19:00:44;28.30;42.30
54034;DHT22;39952;40.122;18.294;2022-07-10T19:03:51;28.50;42.40
54034;DHT22;39952;40.122;18.294;2022-07-10T19:06:58;28.40;42.40
54034;DHT22;39952;40.122;18.294;2022-07-10T19:10:06;28.30;43.00
54034;DHT22;39952;40.122;18.294;2022-07-10T19:13:14;28.30;42.80
54034;DHT22;39952;40.122;18.294;2022-07-10T19:16:21;28.40;42.60
54034;DHT22;39952;40.122;18.294;2022-07-10T19:19:28;28.50;42.80
54034;DHT22;39952;40.122;18.294;2022-07-10T19:22:35;28.30;42.90
54034;DHT22;39952;40.122;18.294;2022-07-10T19:25:42;28.50;43.20
54034;DHT22;39952;40.122;18.294;2022-07-10T19:28:50;28.40;43.30
54034;DHT22;39952;40.122;18.294;2022-07-10T19:31:57;28.40;43.50
54034;DHT22;39952;40.122;18.294;2022-07-10T19:35:04;28.40;43.80